createdAt,value
2023-03-21T00:01:30.124Z,13.50
2023-03-21T00:03:56.965Z,13.50
2023-03-21T00:06:24.052Z,13.40
2023-03-21T00:08:51.221Z,13.40
2023-03-21T00:11:18.076Z,13.40
2023-03-21T00:13:44.860Z,13.40
2023-03-21T00:16:21.391Z,13.40
2023-03-21T00:18:55.427Z,13.40
2023-03-21T00:24:15.489Z,13.40
2023-03-21T00:26:42.307Z,13.40
2023-03-21T00:29:09.088Z,13.40
2023-03-21T00:31:35.864Z,13.40
2023-03-21T00:34:02.603Z,13.40
2023-03-21T00:36:29.425Z,13.40
2023-03-21T00:38:56.305Z,13.20
2023-03-21T00:41:39.286Z,13.20
2023-03-21T00:44:08.705Z,13.20
2023-03-21T00:46:45.568Z,13.30
2023-03-21T00:49:16.165Z,13.10
2023-03-21T00:51:43.836Z,13.10
2023-03-21T00:54:12.740Z,13.10
2023-03-21T00:56:39.585Z,13.10
2023-03-21T00:59:06.483Z,13.10
2023-03-21T01:01:33.400Z,13.10
2023-03-21T01:04:07.803Z,13.10
2023-03-21T01:06:39.616Z,13.00
2023-03-21T01:09:18.431Z,13.00
2023-03-21T01:11:46.088Z,13.00
2023-03-21T01:14:22.517Z,13.00
2023-03-21T01:16:53.088Z,13.10
2023-03-21T01:19:37.588Z,13.00
2023-03-21T01:22:09.722Z,13.10
2023-03-21T01:24:40.469Z,13.10
2023-03-21T01:27:10.396Z,13.10
2023-03-21T01:29:37.750Z,13.00
2023-03-21T01:32:04.663Z,13.00
2023-03-21T01:34:31.493Z,13.00
2023-03-21T01:36:58.358Z,13.00
2023-03-21T01:39:25.108Z,13.00
2023-03-21T01:41:51.853Z,12.90
2023-03-21T01:44:19.542Z,12.90
2023-03-21T01:47:03.634Z,12.90
2023-03-21T01:49:39.762Z,12.90
2023-03-21T01:52:15.215Z,12.90
2023-03-21T01:54:45.054Z,12.80
2023-03-21T01:57:17.145Z,12.90
2023-03-21T01:59:50.449Z,12.90
2023-03-21T02:02:23.319Z,12.90
2023-03-21T02:04:56.158Z,12.90
2023-03-21T02:07:31.736Z,12.80
2023-03-21T02:09:59.455Z,12.80
2023-03-21T02:12:27.274Z,12.90
2023-03-21T02:14:56.264Z,12.90
2023-03-21T02:18:04.191Z,12.90
2023-03-21T02:20:52.447Z,12.90
2023-03-21T02:23:28.015Z,12.90
2023-03-21T02:26:13.063Z,12.80
2023-03-21T02:28:39.821Z,12.80
2023-03-21T02:31:28.446Z,12.90
2023-03-21T02:34:26.163Z,12.90
2023-03-21T02:37:11.516Z,12.90
2023-03-21T02:39:42.785Z,12.90
2023-03-21T02:42:19.543Z,12.90
2023-03-21T02:45:11.390Z,12.70
2023-03-21T02:47:52.900Z,12.80
2023-03-21T02:50:26.466Z,12.90
2023-03-21T02:52:54.114Z,12.80
2023-03-21T02:55:28.502Z,12.90
2023-03-21T02:57:59.226Z,12.80
2023-03-21T03:00:32.646Z,12.90
2023-03-21T03:03:09.646Z,12.90
2023-03-21T03:05:48.067Z,12.90
2023-03-21T03:08:38.338Z,12.90
2023-03-21T03:11:31.529Z,12.90
2023-03-21T03:14:25.239Z,12.90
2023-03-21T03:17:06.504Z,13.00
2023-03-21T03:19:49.765Z,12.90
2023-03-21T03:22:29.651Z,13.00
2023-03-21T03:25:09.613Z,12.90
2023-03-21T03:27:46.806Z,12.90
2023-03-21T03:30:14.838Z,13.00
2023-03-21T03:32:56.541Z,12.90
2023-03-21T03:35:25.322Z,13.00
2023-03-21T03:37:58.037Z,12.90
2023-03-21T03:40:30.609Z,13.10
2023-03-21T03:43:04.840Z,13.00
2023-03-21T03:45:44.310Z,12.90
2023-03-21T03:48:26.560Z,12.90
2023-03-21T03:50:54.721Z,12.90
2023-03-21T03:53:35.256Z,12.90
2023-03-21T03:56:03.053Z,12.90
2023-03-21T03:58:43.037Z,12.90
2023-03-21T04:01:12.478Z,13.00
2023-03-21T04:03:49.792Z,12.80
2023-03-21T04:06:19.401Z,12.80
2023-03-21T04:08:46.154Z,12.80
2023-03-21T04:11:16.401Z,12.80
2023-03-21T04:13:43.257Z,12.70
2023-03-21T04:16:11.804Z,12.80
2023-03-21T04:18:42.015Z,12.80
2023-03-21T04:21:13.296Z,12.90
2023-03-21T04:23:41.217Z,12.90
2023-03-21T04:26:08.457Z,12.90
2023-03-21T04:28:37.026Z,12.90
2023-03-21T04:31:16.140Z,12.90
2023-03-21T04:33:50.089Z,12.90
2023-03-21T04:36:25.206Z,12.90
2023-03-21T04:38:53.420Z,13.00
2023-03-21T04:41:20.353Z,12.90
2023-03-21T04:43:47.464Z,12.90
2023-03-21T04:46:14.793Z,12.90
2023-03-21T04:48:41.692Z,12.90
2023-03-21T04:51:08.532Z,12.90
2023-03-21T04:53:35.551Z,12.90
2023-03-21T04:56:02.262Z,12.90
2023-03-21T04:58:30.532Z,12.90
2023-03-21T05:00:57.405Z,12.90
2023-03-21T05:03:24.931Z,12.90
2023-03-21T05:05:51.721Z,12.90
2023-03-21T05:08:18.578Z,12.90
2023-03-21T05:10:45.787Z,12.90
2023-03-21T05:13:12.526Z,12.80
2023-03-21T05:15:39.705Z,12.80
2023-03-21T05:18:11.533Z,12.70
2023-03-21T05:20:42.876Z,12.70
2023-03-21T05:23:10.988Z,12.70
2023-03-21T05:25:39.565Z,12.70
2023-03-21T05:28:07.731Z,12.80
2023-03-21T05:30:34.839Z,12.70
2023-03-21T05:33:01.770Z,12.60
2023-03-21T05:35:28.940Z,12.70
2023-03-21T05:37:55.911Z,12.80
2023-03-21T05:40:22.878Z,12.80
2023-03-21T05:42:50.388Z,12.90
2023-03-21T05:45:17.245Z,12.90
2023-03-21T05:47:44.074Z,12.80
2023-03-21T05:50:11.853Z,12.90
2023-03-21T05:52:38.922Z,12.80
2023-03-21T05:55:06.063Z,12.90
2023-03-21T05:57:35.176Z,12.90
2023-03-21T06:00:02.280Z,12.90
2023-03-21T06:02:29.137Z,12.90
2023-03-21T06:04:56.625Z,12.90
2023-03-21T06:07:23.822Z,12.90
2023-03-21T06:09:50.623Z,12.80
2023-03-21T06:12:17.751Z,12.80
2023-03-21T06:14:44.590Z,12.70
2023-03-21T06:17:11.350Z,12.70
2023-03-21T06:19:38.104Z,12.70
2023-03-21T06:22:04.881Z,12.80
2023-03-21T06:24:31.951Z,12.80
2023-03-21T06:26:58.678Z,12.80
2023-03-21T06:29:25.556Z,12.80
2023-03-21T06:31:52.320Z,12.90
2023-03-21T06:34:19.115Z,12.90
2023-03-21T06:36:47.014Z,12.90
2023-03-21T06:39:14.032Z,12.90
2023-03-21T06:41:40.985Z,12.90
2023-03-21T06:44:07.903Z,12.90
2023-03-21T06:46:34.730Z,12.90
2023-03-21T06:49:01.550Z,13.00
2023-03-21T06:51:28.372Z,13.10
2023-03-21T06:53:55.183Z,13.10
2023-03-21T06:56:22.259Z,13.10
2023-03-21T06:58:49.734Z,13.10
2023-03-21T07:01:16.537Z,13.20
2023-03-21T07:03:43.987Z,13.20
2023-03-21T07:06:12.263Z,13.20
2023-03-21T07:08:40.275Z,13.20
2023-03-21T07:11:08.181Z,13.20
2023-03-21T07:13:35.259Z,13.20
2023-03-21T07:16:02.188Z,13.30
2023-03-21T07:18:29.085Z,13.20
2023-03-21T07:20:55.976Z,13.20
2023-03-21T07:23:25.766Z,13.10
2023-03-21T07:25:53.151Z,13.20
2023-03-21T07:28:20.529Z,13.20
2023-03-21T07:30:56.417Z,13.30
2023-03-21T07:33:24.126Z,13.40
2023-03-21T07:35:52.206Z,13.50
2023-03-21T07:38:20.426Z,13.50
2023-03-21T07:40:48.711Z,13.60
2023-03-21T07:43:16.246Z,13.60
2023-03-21T07:45:43.867Z,13.70
2023-03-21T07:48:13.062Z,13.90
2023-03-21T07:50:42.888Z,13.70
2023-03-21T07:53:09.948Z,13.70
2023-03-21T07:55:37.148Z,13.70
2023-03-21T07:58:04.999Z,13.70
2023-03-21T08:00:32.001Z,13.70
2023-03-21T08:02:59.936Z,13.70
2023-03-21T08:05:38.144Z,13.80
2023-03-21T08:08:06.369Z,13.80
2023-03-21T08:10:33.806Z,13.80
2023-03-21T08:13:00.851Z,13.80
2023-03-21T08:15:27.615Z,13.90
2023-03-21T08:17:54.674Z,13.80
2023-03-21T08:20:23.562Z,14.00
2023-03-21T08:22:50.866Z,14.00
2023-03-21T08:25:20.162Z,14.10
2023-03-21T08:27:48.417Z,14.10
2023-03-21T08:30:18.706Z,14.10
2023-03-21T08:32:45.580Z,14.20
2023-03-21T08:35:15.944Z,14.20
2023-03-21T08:37:44.124Z,14.30
2023-03-21T08:40:15.763Z,14.50
2023-03-21T08:42:43.280Z,14.50
2023-03-21T08:45:11.590Z,14.50
2023-03-21T08:47:39.173Z,14.60
2023-03-21T08:50:07.986Z,14.80
2023-03-21T08:52:34.997Z,14.60
2023-03-21T08:55:02.318Z,14.70
2023-03-21T08:57:30.537Z,14.80
2023-03-21T08:59:57.429Z,14.90
2023-03-21T09:02:24.522Z,15.00
2023-03-21T09:04:54.953Z,15.10
2023-03-21T09:07:22.246Z,15.00
2023-03-21T09:10:08.181Z,15.00
2023-03-21T09:12:39.382Z,15.10
2023-03-21T09:15:07.667Z,15.20
2023-03-21T09:17:34.514Z,15.30
2023-03-21T09:20:11.023Z,15.30
2023-03-21T09:22:41.851Z,15.40
2023-03-21T09:25:11.602Z,15.40
2023-03-21T09:27:38.812Z,15.50
2023-03-21T09:30:07.526Z,15.60
2023-03-21T09:32:34.965Z,15.70
2023-03-21T09:35:02.214Z,15.80
2023-03-21T09:37:29.422Z,15.80
2023-03-21T09:39:58.279Z,15.80
2023-03-21T09:43:08.871Z,15.70
2023-03-21T09:45:48.030Z,15.80
2023-03-21T09:48:57.007Z,15.90
2023-03-21T09:51:28.858Z,15.90
2023-03-21T09:54:01.088Z,15.90
2023-03-21T09:56:28.482Z,15.90
2023-03-21T09:58:59.472Z,16.00
2023-03-21T10:01:29.992Z,16.10
2023-03-21T10:04:00.601Z,16.00
2023-03-21T10:06:30.585Z,16.00
2023-03-21T10:09:07.958Z,16.00
2023-03-21T10:11:50.676Z,15.90
2023-03-21T10:14:30.527Z,15.90
2023-03-21T10:17:25.170Z,15.80
2023-03-21T10:20:16.108Z,15.90
2023-03-21T10:22:46.270Z,16.00
2023-03-21T10:25:18.230Z,16.00
2023-03-21T10:27:46.403Z,16.00
2023-03-21T10:30:24.910Z,16.00
2023-03-21T10:32:52.379Z,16.00
2023-03-21T10:35:19.923Z,16.00
2023-03-21T10:37:47.274Z,16.00
2023-03-21T10:40:18.160Z,16.10
2023-03-21T10:42:45.007Z,16.10
2023-03-21T10:45:18.730Z,16.10
2023-03-21T10:47:48.923Z,16.10
2023-03-21T10:50:20.746Z,16.20
2023-03-21T10:52:53.524Z,16.20
2023-03-21T10:55:22.565Z,16.30
2023-03-21T10:57:57.615Z,16.30
2023-03-21T11:00:29.220Z,16.30
2023-03-21T11:02:57.853Z,16.30
2023-03-21T11:05:38.720Z,16.40
2023-03-21T11:08:12.231Z,16.40
2023-03-21T11:11:01.228Z,16.40
2023-03-21T11:13:37.852Z,16.50
2023-03-21T11:16:09.806Z,16.50
2023-03-21T11:18:42.874Z,16.50
2023-03-21T11:21:14.655Z,16.50
2023-03-21T11:23:48.155Z,16.50
2023-03-21T11:26:27.705Z,16.60
2023-03-21T11:28:55.976Z,16.50
2023-03-21T11:31:25.049Z,16.60
2023-03-21T11:34:00.390Z,16.60
2023-03-21T11:36:33.830Z,16.60
2023-03-21T11:39:31.435Z,16.70
2023-03-21T11:41:58.586Z,16.70
2023-03-21T11:44:28.056Z,16.80
2023-03-21T11:46:55.556Z,16.80
2023-03-21T11:49:23.860Z,16.80
2023-03-21T11:51:53.401Z,16.90
2023-03-21T11:54:32.489Z,16.90
2023-03-21T11:57:30.151Z,17.00
2023-03-21T12:00:18.101Z,17.00
2023-03-21T12:03:46.807Z,17.00
2023-03-21T12:06:40.054Z,17.10
2023-03-21T12:09:30.174Z,17.00
2023-03-21T12:12:15.803Z,17.10
2023-03-21T12:14:45.500Z,17.20
2023-03-21T12:17:30.736Z,17.20
2023-03-21T12:20:20.865Z,17.20
2023-03-21T12:23:11.728Z,17.30
2023-03-21T12:25:54.759Z,17.30
2023-03-21T12:28:33.218Z,17.40
2023-03-21T12:31:16.949Z,17.30
2023-03-21T12:34:09.120Z,17.40
2023-03-21T12:36:39.000Z,17.40
2023-03-21T12:39:30.936Z,17.40
2023-03-21T12:41:57.815Z,17.40
2023-03-21T12:44:29.221Z,17.40
2023-03-21T12:47:21.300Z,17.40
2023-03-21T12:50:13.815Z,17.40
2023-03-21T12:52:44.457Z,17.40
2023-03-21T12:55:29.207Z,17.40
2023-03-21T12:58:03.286Z,17.50
2023-03-21T13:00:48.280Z,17.40
2023-03-21T13:03:39.809Z,17.40
2023-03-21T13:06:10.754Z,17.50
2023-03-21T13:08:44.885Z,17.50
2023-03-21T13:11:16.764Z,17.50
2023-03-21T13:13:43.462Z,17.40
2023-03-21T13:16:22.127Z,17.50
2023-03-21T13:19:24.424Z,17.50
2023-03-21T13:22:15.416Z,17.50
2023-03-21T13:24:48.668Z,17.50
2023-03-21T13:27:20.240Z,17.50
2023-03-21T13:30:00.563Z,17.50
2023-03-21T13:32:34.761Z,17.50
2023-03-21T13:35:04.825Z,17.50
2023-03-21T13:37:35.358Z,17.40
2023-03-21T13:40:19.724Z,17.50
2023-03-21T13:42:53.335Z,17.50
2023-03-21T13:45:32.884Z,17.50
2023-03-21T13:48:03.546Z,17.50
2023-03-21T13:50:51.942Z,17.50
2023-03-21T13:53:22.497Z,17.50
2023-03-21T13:56:00.528Z,17.50
2023-03-21T13:58:46.733Z,17.50
2023-03-21T14:01:23.704Z,17.50
2023-03-21T14:03:57.016Z,17.40
2023-03-21T14:06:30.532Z,17.40
2023-03-21T14:08:58.440Z,17.30
2023-03-21T14:11:26.813Z,17.30
2023-03-21T14:13:54.619Z,17.40
2023-03-21T14:16:25.947Z,17.30
2023-03-21T14:18:56.850Z,17.40
2023-03-21T14:21:26.411Z,17.30
2023-03-21T14:24:05.022Z,17.30
2023-03-21T14:26:40.346Z,17.30
2023-03-21T14:29:24.764Z,17.20
2023-03-21T14:31:54.862Z,17.30
2023-03-21T14:34:23.193Z,17.30
2023-03-21T14:36:57.661Z,15.90
2023-03-21T14:39:32.176Z,17.30
2023-03-21T14:42:12.019Z,17.30
2023-03-21T14:44:54.064Z,17.20
2023-03-21T14:47:30.008Z,17.20
2023-03-21T14:49:58.472Z,17.20
2023-03-21T14:52:34.404Z,17.20
2023-03-21T14:55:02.820Z,17.20
2023-03-21T14:57:32.318Z,17.20
2023-03-21T15:00:12.523Z,17.30
2023-03-21T15:02:41.905Z,17.40
2023-03-21T15:05:13.733Z,17.30
2023-03-21T15:07:40.861Z,17.30
2023-03-21T15:10:19.909Z,17.30
2023-03-21T15:12:58.858Z,17.30
2023-03-21T15:15:29.262Z,17.30
2023-03-21T15:18:02.552Z,17.20
2023-03-21T15:20:34.212Z,17.20
2023-03-21T15:23:12.877Z,17.20
2023-03-21T15:25:40.742Z,16.40
2023-03-21T15:28:08.208Z,17.10
2023-03-21T15:30:35.646Z,17.20
2023-03-21T15:33:09.694Z,17.20
2023-03-21T15:35:40.843Z,17.20
2023-03-21T15:38:20.877Z,17.20
2023-03-21T15:40:48.022Z,17.10
2023-03-21T15:43:20.933Z,17.20
2023-03-21T15:45:56.519Z,17.20
2023-03-21T15:48:27.382Z,17.20
2023-03-21T15:51:23.853Z,17.10
2023-03-21T15:53:54.191Z,17.10
2023-03-21T15:56:22.699Z,17.10
2023-03-21T15:58:52.687Z,17.10
2023-03-21T16:01:22.166Z,17.10
2023-03-21T16:03:56.989Z,17.10
2023-03-21T16:06:31.302Z,17.10
2023-03-21T16:09:12.573Z,17.10
2023-03-21T16:11:50.500Z,17.00
2023-03-21T16:14:25.040Z,17.10
2023-03-21T16:16:52.994Z,17.00
2023-03-21T16:19:20.081Z,17.00
2023-03-21T16:21:47.143Z,17.00
2023-03-21T16:24:13.983Z,17.10
2023-03-21T16:26:47.725Z,17.00
2023-03-21T16:29:15.762Z,17.10
2023-03-21T16:31:43.308Z,17.00
2023-03-21T16:34:10.871Z,17.00
2023-03-21T16:36:40.307Z,17.10
2023-03-21T16:39:19.031Z,17.10
2023-03-21T16:41:46.685Z,17.10
2023-03-21T16:44:13.603Z,17.20
2023-03-21T16:46:40.715Z,17.10
2023-03-21T16:49:23.509Z,17.10
2023-03-21T16:51:50.814Z,17.10
2023-03-21T16:54:17.593Z,17.10
2023-03-21T16:57:04.550Z,17.00
2023-03-21T16:59:31.425Z,17.00
2023-03-21T17:01:58.311Z,17.00
2023-03-21T17:04:25.725Z,17.00
2023-03-21T17:06:54.154Z,17.00
2023-03-21T17:09:26.337Z,17.00
2023-03-21T17:11:53.229Z,17.00
2023-03-21T17:14:21.752Z,17.00
2023-03-21T17:16:48.758Z,16.90
2023-03-21T17:19:24.054Z,17.00
2023-03-21T17:21:51.036Z,17.00
2023-03-21T17:24:18.217Z,17.00
2023-03-21T17:26:45.428Z,17.00
2023-03-21T17:29:15.809Z,16.90
2023-03-21T17:31:43.967Z,16.90
2023-03-21T17:34:11.208Z,16.90
2023-03-21T17:36:40.862Z,16.90
2023-03-21T17:39:09.566Z,16.80
2023-03-21T17:41:37.092Z,16.80
2023-03-21T17:44:04.151Z,16.80
2023-03-21T17:46:35.803Z,16.80
2023-03-21T17:49:03.887Z,16.70
2023-03-21T17:51:30.848Z,16.80
2023-03-21T17:53:57.857Z,16.70
2023-03-21T17:56:30.945Z,16.60
2023-03-21T17:59:03.420Z,16.60
2023-03-21T18:01:33.581Z,16.60
2023-03-21T18:04:02.934Z,16.70
2023-03-21T18:06:29.817Z,16.60
2023-03-21T18:08:56.604Z,16.70
2023-03-21T18:11:24.325Z,16.60
2023-03-21T18:14:01.247Z,16.60
2023-03-21T18:16:33.899Z,16.60
2023-03-21T18:19:00.758Z,16.60
2023-03-21T18:21:32.205Z,16.60
2023-03-21T18:23:59.913Z,16.50
2023-03-21T18:26:26.758Z,16.50
2023-03-21T18:29:36.664Z,16.50
2023-03-21T18:31:40.481Z,16.50
2023-03-21T18:34:07.412Z,16.50
2023-03-21T18:36:34.571Z,16.50
2023-03-21T18:39:03.489Z,16.50
2023-03-21T18:41:30.717Z,16.40
2023-03-21T18:44:04.655Z,16.40
2023-03-21T18:46:36.945Z,16.50
2023-03-21T18:49:33.488Z,16.40
2023-03-21T18:51:52.681Z,16.50
2023-03-21T18:54:20.421Z,16.40
2023-03-21T18:57:33.752Z,16.40
2023-03-21T18:59:39.282Z,16.30
2023-03-21T19:02:06.829Z,16.30
2023-03-21T19:04:34.254Z,16.40
2023-03-21T19:07:01.320Z,16.40
2023-03-21T19:09:31.813Z,16.40
2023-03-21T19:11:59.817Z,16.50
2023-03-21T19:14:27.072Z,16.30
2023-03-21T19:17:41.318Z,16.30
2023-03-21T19:19:43.407Z,16.30
2023-03-21T19:22:10.613Z,16.10
2023-03-21T19:24:37.385Z,16.10
2023-03-21T19:27:04.265Z,16.10
2023-03-21T19:29:31.054Z,16.00
2023-03-21T19:31:58.040Z,16.30
2023-03-21T19:34:26.596Z,16.10
2023-03-21T19:36:53.534Z,16.00
2023-03-21T19:39:22.706Z,16.10
2023-03-21T19:41:51.020Z,16.10
2023-03-21T19:44:19.568Z,16.10
2023-03-21T19:46:48.391Z,16.10
2023-03-21T19:49:20.115Z,16.00
2023-03-21T19:51:47.472Z,16.00
2023-03-21T19:54:17.309Z,16.10
2023-03-21T19:56:47.764Z,16.10
2023-03-21T19:59:15.027Z,16.10
2023-03-21T20:01:43.123Z,16.00
2023-03-21T20:04:11.381Z,15.90
2023-03-21T20:06:38.670Z,15.90
2023-03-21T20:09:47.142Z,15.80
2023-03-21T20:11:53.417Z,15.80
2023-03-21T20:14:21.260Z,15.70
2023-03-21T20:16:48.139Z,15.70
2023-03-21T20:19:16.272Z,15.70
2023-03-21T20:21:49.726Z,15.70
2023-03-21T20:24:20.236Z,15.70
2023-03-21T20:26:50.809Z,15.70
2023-03-21T20:32:10.902Z,15.70
2023-03-21T20:34:38.335Z,15.70
2023-03-21T20:37:06.106Z,15.70
2023-03-21T20:39:39.076Z,15.70
2023-03-21T20:42:05.998Z,15.60
2023-03-21T20:44:56.841Z,15.60
2023-03-21T20:47:20.460Z,15.60
2023-03-21T20:49:47.258Z,15.60
2023-03-21T20:52:52.081Z,15.50
2023-03-21T20:55:03.080Z,15.50
2023-03-21T20:57:30.248Z,15.40
2023-03-21T20:59:57.665Z,15.40
2023-03-21T21:02:24.977Z,15.40
2023-03-21T21:05:21.894Z,15.40
2023-03-21T21:07:42.920Z,15.40
2023-03-21T21:10:11.662Z,15.40
2023-03-21T21:12:40.289Z,15.40
2023-03-21T21:15:09.426Z,15.40
2023-03-21T21:20:23.952Z,15.60
2023-03-21T21:23:00.538Z,15.60
2023-03-21T21:25:29.739Z,15.60
2023-03-21T21:27:56.622Z,15.60
2023-03-21T21:30:23.542Z,15.50
2023-03-21T21:32:50.371Z,15.40
2023-03-21T21:35:19.540Z,15.40
2023-03-21T21:37:46.397Z,15.40
2023-03-21T21:40:15.739Z,15.40
2023-03-21T21:42:43.696Z,15.30
2023-03-21T21:45:12.353Z,15.40
2023-03-21T21:47:39.625Z,15.50
2023-03-21T21:50:07.455Z,15.50
2023-03-21T21:52:34.283Z,15.40
2023-03-21T21:55:01.960Z,15.40
2023-03-21T21:57:30.492Z,15.30
2023-03-21T21:59:57.299Z,15.20
2023-03-21T22:02:25.427Z,15.20
2023-03-21T22:04:56.979Z,15.20
2023-03-21T22:07:27.497Z,15.10
2023-03-21T22:09:54.641Z,15.10
2023-03-21T22:12:21.532Z,15.20
2023-03-21T22:14:48.349Z,15.00
2023-03-21T22:17:15.281Z,15.00
2023-03-21T22:19:43.514Z,15.00
2023-03-21T22:22:11.601Z,15.00
2023-03-21T22:24:38.409Z,15.00
2023-03-21T22:27:05.455Z,15.00
2023-03-21T22:29:32.381Z,15.00
2023-03-21T22:31:59.278Z,15.00
2023-03-21T22:34:27.671Z,15.00
2023-03-21T22:36:57.069Z,15.00
2023-03-21T22:39:26.361Z,15.10
2023-03-21T22:41:54.749Z,15.10
2023-03-21T22:44:21.832Z,15.10
2023-03-21T22:46:48.698Z,15.10
2023-03-21T22:49:16.348Z,15.10
2023-03-21T22:51:43.798Z,15.10
2023-03-21T22:54:10.788Z,15.10
2023-03-21T22:56:37.677Z,15.10
2023-03-21T22:59:04.467Z,15.10
2023-03-21T23:01:31.630Z,15.10
2023-03-21T23:03:58.635Z,15.10
2023-03-21T23:06:25.748Z,15.10
2023-03-21T23:08:52.570Z,15.10
2023-03-21T23:11:19.425Z,15.10
2023-03-21T23:13:51.610Z,15.10
2023-03-21T23:16:27.752Z,15.00
2023-03-21T23:18:55.342Z,15.00
2023-03-21T23:21:23.805Z,15.00
2023-03-21T23:23:51.812Z,15.00
2023-03-21T23:26:23.478Z,15.00
2023-03-21T23:28:50.846Z,15.00
2023-03-21T23:31:20.723Z,15.00
2023-03-21T23:33:49.434Z,14.90
2023-03-21T23:36:17.678Z,15.00
2023-03-21T23:38:45.732Z,14.90
2023-03-21T23:41:19.174Z,15.00
2023-03-21T23:43:46.862Z,14.90
2023-03-21T23:46:15.126Z,14.90
2023-03-21T23:48:43.005Z,14.80
2023-03-21T23:51:11.009Z,14.90
2023-03-21T23:53:39.260Z,14.80
2023-03-21T23:56:15.320Z,14.80
2023-03-21T23:58:42.140Z,14.70
